sensor_id;sensor_type;location;lat;lon;timestamp;P1;durP1;ratioP1;P2;durP2;ratioP2
47365;SDS011;33105;47.964;7.982;2023-04-24T00:00:37;2.10;;;0.57;;
47365;SDS011;33105;47.964;7.982;2023-04-24T00:03:41;2.60;;;0.77;;
47365;SDS011;33105;47.964;7.982;2023-04-24T00:06:42;3.13;;;0.70;;
47365;SDS011;33105;47.964;7.982;2023-04-24T00:09:44;4.15;;;0.80;;
47365;SDS011;33105;47.964;7.982;2023-04-24T00:12:45;5.40;;;0.50;;
47365;SDS011;33105;47.964;7.982;2023-04-24T00:15:46;2.22;;;0.70;;
47365;SDS011;33105;47.964;7.982;2023-04-24T00:18:48;2.78;;;0.47;;
47365;SDS011;33105;47.964;7.982;2023-04-24T00:21:49;3.90;;;0.55;;
47365;SDS011;33105;47.964;7.982;2023-04-24T00:24:50;1.70;;;0.50;;
47365;SDS011;33105;47.964;7.982;2023-04-24T00:27:52;4.25;;;0.63;;
47365;SDS011;33105;47.964;7.982;2023-04-24T00:30:53;1.45;;;0.63;;
47365;SDS011;33105;47.964;7.982;2023-04-24T00:33:54;4.43;;;0.57;;
47365;SDS011;33105;47.964;7.982;2023-04-24T00:36:55;2.90;;;0.68;;
47365;SDS011;33105;47.964;7.982;2023-04-24T00:39:57;2.72;;;0.60;;
47365;SDS011;33105;47.964;7.982;2023-04-24T00:42:58;3.40;;;0.50;;
47365;SDS011;33105;47.964;7.982;2023-04-24T00:45:59;2.20;;;0.40;;
47365;SDS011;33105;47.964;7.982;2023-04-24T00:49:02;2.42;;;0.73;;
47365;SDS011;33105;47.964;7.982;2023-04-24T00:52:05;1.90;;;0.52;;
47365;SDS011;33105;47.964;7.982;2023-04-24T00:55:09;1.23;;;0.47;;
47365;SDS011;33105;47.964;7.982;2023-04-24T00:58:11;3.45;;;0.52;;
47365;SDS011;33105;47.964;7.982;2023-04-24T01:01:13;0.85;;;0.30;;
47365;SDS011;33105;47.964;7.982;2023-04-24T01:04:14;0.47;;;0.40;;
47365;SDS011;33105;47.964;7.982;2023-04-24T01:07:19;1.88;;;0.47;;
47365;SDS011;33105;47.964;7.982;2023-04-24T01:10:21;1.98;;;0.60;;
47365;SDS011;33105;47.964;7.982;2023-04-24T01:13:26;0.98;;;0.47;;
47365;SDS011;33105;47.964;7.982;2023-04-24T01:16:28;1.42;;;0.43;;
47365;SDS011;33105;47.964;7.982;2023-04-24T01:19:29;0.77;;;0.40;;
47365;SDS011;33105;47.964;7.982;2023-04-24T01:22:33;3.13;;;0.52;;
47365;SDS011;33105;47.964;7.982;2023-04-24T01:25:35;1.20;;;0.52;;
47365;SDS011;33105;47.964;7.982;2023-04-24T01:28:37;1.35;;;0.45;;
47365;SDS011;33105;47.964;7.982;2023-04-24T01:31:40;6.15;;;0.75;;
47365;SDS011;33105;47.964;7.982;2023-04-24T01:34:41;1.50;;;0.50;;
47365;SDS011;33105;47.964;7.982;2023-04-24T01:37:43;3.35;;;0.70;;
47365;SDS011;33105;47.964;7.982;2023-04-24T01:40:45;1.23;;;0.40;;
47365;SDS011;33105;47.964;7.982;2023-04-24T01:43:47;2.83;;;0.70;;
47365;SDS011;33105;47.964;7.982;2023-04-24T01:46:49;3.35;;;0.70;;
47365;SDS011;33105;47.964;7.982;2023-04-24T01:49:51;2.40;;;0.93;;
47365;SDS011;33105;47.964;7.982;2023-04-24T01:52:53;3.30;;;0.60;;
47365;SDS011;33105;47.964;7.982;2023-04-24T01:55:54;1.75;;;0.63;;
47365;SDS011;33105;47.964;7.982;2023-04-24T01:58:55;1.67;;;0.63;;
47365;SDS011;33105;47.964;7.982;2023-04-24T02:01:58;2.47;;;0.60;;
47365;SDS011;33105;47.964;7.982;2023-04-24T02:04:59;2.78;;;0.52;;
47365;SDS011;33105;47.964;7.982;2023-04-24T02:08:00;4.13;;;0.70;;
47365;SDS011;33105;47.964;7.982;2023-04-24T02:11:02;2.53;;;0.55;;
47365;SDS011;33105;47.964;7.982;2023-04-24T02:14:03;2.05;;;0.32;;
47365;SDS011;33105;47.964;7.982;2023-04-24T02:17:04;2.72;;;0.50;;
47365;SDS011;33105;47.964;7.982;2023-04-24T02:20:06;6.80;;;0.70;;
47365;SDS011;33105;47.964;7.982;2023-04-24T02:23:07;3.42;;;0.52;;
47365;SDS011;33105;47.964;7.982;2023-04-24T02:26:09;2.42;;;0.60;;
47365;SDS011;33105;47.964;7.982;2023-04-24T02:29:10;2.45;;;0.47;;
47365;SDS011;33105;47.964;7.982;2023-04-24T02:32:11;3.10;;;0.50;;
47365;SDS011;33105;47.964;7.982;2023-04-24T02:35:13;4.07;;;0.57;;
47365;SDS011;33105;47.964;7.982;2023-04-24T02:38:14;0.57;;;0.47;;
47365;SDS011;33105;47.964;7.982;2023-04-24T02:41:18;1.70;;;0.60;;
47365;SDS011;33105;47.964;7.982;2023-04-24T02:44:19;1.75;;;0.35;;
47365;SDS011;33105;47.964;7.982;2023-04-24T02:47:20;3.65;;;0.60;;
47365;SDS011;33105;47.964;7.982;2023-04-24T02:50:23;0.50;;;0.30;;
47365;SDS011;33105;47.964;7.982;2023-04-24T02:53:25;3.55;;;0.40;;
47365;SDS011;33105;47.964;7.982;2023-04-24T02:56:26;2.15;;;0.80;;
47365;SDS011;33105;47.964;7.982;2023-04-24T02:59:28;2.53;;;0.47;;
47365;SDS011;33105;47.964;7.982;2023-04-24T03:02:30;2.35;;;0.60;;
47365;SDS011;33105;47.964;7.982;2023-04-24T03:05:31;2.47;;;0.50;;
47365;SDS011;33105;47.964;7.982;2023-04-24T03:08:32;0.43;;;0.40;;
47365;SDS011;33105;47.964;7.982;2023-04-24T03:11:33;1.30;;;0.32;;
47365;SDS011;33105;47.964;7.982;2023-04-24T03:14:35;0.85;;;0.32;;
47365;SDS011;33105;47.964;7.982;2023-04-24T03:17:36;1.05;;;0.50;;
47365;SDS011;33105;47.964;7.982;2023-04-24T03:20:37;1.13;;;0.32;;
47365;SDS011;33105;47.964;7.982;2023-04-24T03:23:38;1.45;;;0.57;;
47365;SDS011;33105;47.964;7.982;2023-04-24T03:26:40;1.70;;;0.40;;
47365;SDS011;33105;47.964;7.982;2023-04-24T03:30:01;2.55;;;0.55;;
47365;SDS011;33105;47.964;7.982;2023-04-24T03:33:13;1.13;;;0.40;;
47365;SDS011;33105;47.964;7.982;2023-04-24T03:36:24;3.70;;;0.55;;
47365;SDS011;33105;47.964;7.982;2023-04-24T03:39:27;1.05;;;0.30;;
47365;SDS011;33105;47.964;7.982;2023-04-24T03:42:30;5.53;;;0.50;;
47365;SDS011;33105;47.964;7.982;2023-04-24T03:45:31;0.55;;;0.40;;
47365;SDS011;33105;47.964;7.982;2023-04-24T03:48:32;1.05;;;0.30;;
47365;SDS011;33105;47.964;7.982;2023-04-24T03:51:34;2.50;;;0.40;;
47365;SDS011;33105;47.964;7.982;2023-04-24T03:54:44;0.93;;;0.30;;
47365;SDS011;33105;47.964;7.982;2023-04-24T03:57:49;2.85;;;0.52;;
47365;SDS011;33105;47.964;7.982;2023-04-24T04:00:56;1.83;;;0.40;;
47365;SDS011;33105;47.964;7.982;2023-04-24T04:04:23;1.63;;;0.35;;
47365;SDS011;33105;47.964;7.982;2023-04-24T04:07:25;1.98;;;0.50;;
47365;SDS011;33105;47.964;7.982;2023-04-24T04:10:26;0.82;;;0.40;;
47365;SDS011;33105;47.964;7.982;2023-04-24T04:13:27;1.58;;;0.47;;
47365;SDS011;33105;47.964;7.982;2023-04-24T04:16:29;1.00;;;0.50;;
47365;SDS011;33105;47.964;7.982;2023-04-24T04:19:36;1.48;;;0.70;;
47365;SDS011;33105;47.964;7.982;2023-04-24T04:22:38;1.17;;;0.60;;
47365;SDS011;33105;47.964;7.982;2023-04-24T04:25:42;2.20;;;1.00;;
47365;SDS011;33105;47.964;7.982;2023-04-24T04:28:44;4.97;;;1.10;;
47365;SDS011;33105;47.964;7.982;2023-04-24T04:31:46;1.92;;;0.73;;
47365;SDS011;33105;47.964;7.982;2023-04-24T04:34:48;4.30;;;2.00;;
47365;SDS011;33105;47.964;7.982;2023-04-24T04:37:51;2.50;;;1.00;;
47365;SDS011;33105;47.964;7.982;2023-04-24T04:41:10;3.03;;;0.90;;
47365;SDS011;33105;47.964;7.982;2023-04-24T04:44:12;1.48;;;0.80;;
47365;SDS011;33105;47.964;7.982;2023-04-24T04:47:13;1.90;;;0.90;;
47365;SDS011;33105;47.964;7.982;2023-04-24T04:50:15;8.70;;;1.10;;
47365;SDS011;33105;47.964;7.982;2023-04-24T04:53:20;2.05;;;0.85;;
47365;SDS011;33105;47.964;7.982;2023-04-24T04:56:21;3.40;;;1.20;;
47365;SDS011;33105;47.964;7.982;2023-04-24T04:59:24;2.13;;;1.00;;
47365;SDS011;33105;47.964;7.982;2023-04-24T05:02:31;2.42;;;1.10;;
47365;SDS011;33105;47.964;7.982;2023-04-24T05:05:32;4.20;;;1.00;;
47365;SDS011;33105;47.964;7.982;2023-04-24T05:08:34;3.72;;;1.27;;
47365;SDS011;33105;47.964;7.982;2023-04-24T05:11:38;2.15;;;1.20;;
47365;SDS011;33105;47.964;7.982;2023-04-24T05:14:40;4.45;;;1.10;;
47365;SDS011;33105;47.964;7.982;2023-04-24T05:17:41;3.30;;;1.20;;
47365;SDS011;33105;47.964;7.982;2023-04-24T05:20:43;3.75;;;1.15;;
47365;SDS011;33105;47.964;7.982;2023-04-24T05:23:45;1.30;;;1.10;;
47365;SDS011;33105;47.964;7.982;2023-04-24T05:26:50;2.47;;;1.30;;
47365;SDS011;33105;47.964;7.982;2023-04-24T05:29:57;3.10;;;1.27;;
47365;SDS011;33105;47.964;7.982;2023-04-24T05:32:58;2.60;;;0.93;;
47365;SDS011;33105;47.964;7.982;2023-04-24T05:35:59;3.80;;;1.02;;
47365;SDS011;33105;47.964;7.982;2023-04-24T05:39:01;4.38;;;1.65;;
47365;SDS011;33105;47.964;7.982;2023-04-24T05:42:02;4.55;;;1.60;;
47365;SDS011;33105;47.964;7.982;2023-04-24T05:45:05;2.80;;;1.40;;
47365;SDS011;33105;47.964;7.982;2023-04-24T05:48:07;2.00;;;1.20;;
47365;SDS011;33105;47.964;7.982;2023-04-24T05:51:09;3.92;;;1.63;;
47365;SDS011;33105;47.964;7.982;2023-04-24T05:54:10;3.22;;;1.67;;
47365;SDS011;33105;47.964;7.982;2023-04-24T05:57:13;2.20;;;1.38;;
47365;SDS011;33105;47.964;7.982;2023-04-24T06:00:43;5.75;;;1.40;;
47365;SDS011;33105;47.964;7.982;2023-04-24T06:03:47;3.70;;;2.15;;
47365;SDS011;33105;47.964;7.982;2023-04-24T06:06:49;2.92;;;1.27;;
47365;SDS011;33105;47.964;7.982;2023-04-24T06:09:52;1.65;;;1.40;;
47365;SDS011;33105;47.964;7.982;2023-04-24T06:12:53;3.90;;;1.67;;
47365;SDS011;33105;47.964;7.982;2023-04-24T06:15:57;4.53;;;1.90;;
47365;SDS011;33105;47.964;7.982;2023-04-24T06:19:06;3.00;;;1.52;;
47365;SDS011;33105;47.964;7.982;2023-04-24T06:22:08;2.10;;;1.42;;
47365;SDS011;33105;47.964;7.982;2023-04-24T06:25:09;2.55;;;1.42;;
47365;SDS011;33105;47.964;7.982;2023-04-24T06:28:10;1.67;;;1.50;;
47365;SDS011;33105;47.964;7.982;2023-04-24T06:31:11;4.68;;;1.33;;
47365;SDS011;33105;47.964;7.982;2023-04-24T06:34:13;3.17;;;1.42;;
47365;SDS011;33105;47.964;7.982;2023-04-24T06:37:15;5.47;;;1.75;;
47365;SDS011;33105;47.964;7.982;2023-04-24T06:40:17;4.32;;;1.80;;
47365;SDS011;33105;47.964;7.982;2023-04-24T06:43:19;3.95;;;1.70;;
47365;SDS011;33105;47.964;7.982;2023-04-24T06:46:21;2.92;;;1.63;;
47365;SDS011;33105;47.964;7.982;2023-04-24T06:49:24;5.05;;;1.92;;
47365;SDS011;33105;47.964;7.982;2023-04-24T06:52:25;3.50;;;1.50;;
47365;SDS011;33105;47.964;7.982;2023-04-24T06:55:27;2.55;;;1.60;;
47365;SDS011;33105;47.964;7.982;2023-04-24T06:58:28;2.22;;;1.40;;
47365;SDS011;33105;47.964;7.982;2023-04-24T07:01:31;5.10;;;1.55;;
47365;SDS011;33105;47.964;7.982;2023-04-24T07:04:32;3.88;;;1.45;;
47365;SDS011;33105;47.964;7.982;2023-04-24T07:07:33;4.13;;;1.10;;
47365;SDS011;33105;47.964;7.982;2023-04-24T07:10:35;3.13;;;1.52;;
47365;SDS011;33105;47.964;7.982;2023-04-24T07:13:36;3.92;;;1.60;;
47365;SDS011;33105;47.964;7.982;2023-04-24T07:16:42;3.67;;;1.50;;
47365;SDS011;33105;47.964;7.982;2023-04-24T07:19:43;2.67;;;1.48;;
47365;SDS011;33105;47.964;7.982;2023-04-24T07:22:45;5.60;;;1.50;;
47365;SDS011;33105;47.964;7.982;2023-04-24T07:25:46;1.63;;;1.23;;
47365;SDS011;33105;47.964;7.982;2023-04-24T07:28:47;3.45;;;1.27;;
47365;SDS011;33105;47.964;7.982;2023-04-24T07:31:48;5.20;;;1.55;;
47365;SDS011;33105;47.964;7.982;2023-04-24T07:34:50;3.55;;;1.35;;
47365;SDS011;33105;47.964;7.982;2023-04-24T07:37:52;2.97;;;1.27;;
47365;SDS011;33105;47.964;7.982;2023-04-24T07:40:53;3.97;;;1.38;;
47365;SDS011;33105;47.964;7.982;2023-04-24T07:43:56;4.03;;;1.45;;
47365;SDS011;33105;47.964;7.982;2023-04-24T07:46:57;2.72;;;1.40;;
47365;SDS011;33105;47.964;7.982;2023-04-24T07:49:58;4.57;;;1.60;;
47365;SDS011;33105;47.964;7.982;2023-04-24T07:53:00;3.17;;;1.58;;
47365;SDS011;33105;47.964;7.982;2023-04-24T07:56:01;6.05;;;1.58;;
47365;SDS011;33105;47.964;7.982;2023-04-24T07:59:02;3.13;;;1.55;;
47365;SDS011;33105;47.964;7.982;2023-04-24T08:02:03;9.10;;;1.50;;
47365;SDS011;33105;47.964;7.982;2023-04-24T08:05:05;4.65;;;1.77;;
47365;SDS011;33105;47.964;7.982;2023-04-24T08:08:07;3.00;;;1.55;;
47365;SDS011;33105;47.964;7.982;2023-04-24T08:11:09;3.70;;;1.67;;
47365;SDS011;33105;47.964;7.982;2023-04-24T08:14:10;5.72;;;1.77;;
47365;SDS011;33105;47.964;7.982;2023-04-24T08:17:13;4.28;;;1.70;;
47365;SDS011;33105;47.964;7.982;2023-04-24T08:20:15;7.22;;;2.38;;
47365;SDS011;33105;47.964;7.982;2023-04-24T08:23:16;3.53;;;1.50;;
47365;SDS011;33105;47.964;7.982;2023-04-24T08:26:17;5.72;;;1.80;;
47365;SDS011;33105;47.964;7.982;2023-04-24T08:29:18;3.70;;;1.88;;
47365;SDS011;33105;47.964;7.982;2023-04-24T08:32:20;6.78;;;1.80;;
47365;SDS011;33105;47.964;7.982;2023-04-24T08:35:21;3.55;;;1.77;;
47365;SDS011;33105;47.964;7.982;2023-04-24T08:38:23;5.07;;;1.70;;
47365;SDS011;33105;47.964;7.982;2023-04-24T08:41:26;4.75;;;1.83;;
47365;SDS011;33105;47.964;7.982;2023-04-24T08:44:28;3.28;;;2.00;;
47365;SDS011;33105;47.964;7.982;2023-04-24T08:47:29;6.82;;;2.38;;
47365;SDS011;33105;47.964;7.982;2023-04-24T08:50:31;3.10;;;1.88;;
47365;SDS011;33105;47.964;7.982;2023-04-24T08:53:32;12.10;;;2.20;;
47365;SDS011;33105;47.964;7.982;2023-04-24T08:56:34;3.70;;;1.90;;
47365;SDS011;33105;47.964;7.982;2023-04-24T08:59:39;5.35;;;2.05;;
47365;SDS011;33105;47.964;7.982;2023-04-24T09:02:42;6.85;;;2.08;;
47365;SDS011;33105;47.964;7.982;2023-04-24T09:05:44;7.53;;;2.35;;
47365;SDS011;33105;47.964;7.982;2023-04-24T09:08:47;6.65;;;2.28;;
47365;SDS011;33105;47.964;7.982;2023-04-24T09:11:52;4.97;;;1.88;;
47365;SDS011;33105;47.964;7.982;2023-04-24T09:14:58;5.03;;;1.70;;
47365;SDS011;33105;47.964;7.982;2023-04-24T09:18:00;3.10;;;1.70;;
47365;SDS011;33105;47.964;7.982;2023-04-24T09:21:03;6.97;;;1.42;;
47365;SDS011;33105;47.964;7.982;2023-04-24T09:24:14;3.22;;;1.80;;
47365;SDS011;33105;47.964;7.982;2023-04-24T09:27:18;2.95;;;1.50;;
47365;SDS011;33105;47.964;7.982;2023-04-24T09:30:20;5.80;;;1.30;;
47365;SDS011;33105;47.964;7.982;2023-04-24T09:33:23;2.85;;;1.25;;
47365;SDS011;33105;47.964;7.982;2023-04-24T09:36:28;4.53;;;1.40;;
47365;SDS011;33105;47.964;7.982;2023-04-24T09:39:33;2.42;;;1.55;;
47365;SDS011;33105;47.964;7.982;2023-04-24T09:42:35;7.43;;;1.38;;
47365;SDS011;33105;47.964;7.982;2023-04-24T09:45:36;9.88;;;1.58;;
47365;SDS011;33105;47.964;7.982;2023-04-24T09:48:39;2.03;;;1.30;;
47365;SDS011;33105;47.964;7.982;2023-04-24T09:51:41;4.47;;;1.30;;
47365;SDS011;33105;47.964;7.982;2023-04-24T09:54:43;3.70;;;1.40;;
47365;SDS011;33105;47.964;7.982;2023-04-24T09:58:00;6.07;;;1.10;;
47365;SDS011;33105;47.964;7.982;2023-04-24T10:01:02;3.03;;;1.27;;
47365;SDS011;33105;47.964;7.982;2023-04-24T10:04:03;1.77;;;1.00;;
47365;SDS011;33105;47.964;7.982;2023-04-24T10:07:05;5.25;;;1.10;;
47365;SDS011;33105;47.964;7.982;2023-04-24T10:10:07;3.80;;;1.30;;
47365;SDS011;33105;47.964;7.982;2023-04-24T10:13:09;4.68;;;1.20;;
47365;SDS011;33105;47.964;7.982;2023-04-24T10:16:11;2.72;;;1.52;;
47365;SDS011;33105;47.964;7.982;2023-04-24T10:19:13;2.90;;;1.10;;
47365;SDS011;33105;47.964;7.982;2023-04-24T10:22:16;3.50;;;1.38;;
47365;SDS011;33105;47.964;7.982;2023-04-24T10:25:28;5.43;;;1.25;;
47365;SDS011;33105;47.964;7.982;2023-04-24T10:28:33;3.55;;;1.00;;
47365;SDS011;33105;47.964;7.982;2023-04-24T10:31:36;2.42;;;1.13;;
47365;SDS011;33105;47.964;7.982;2023-04-24T10:34:38;3.58;;;1.35;;
47365;SDS011;33105;47.964;7.982;2023-04-24T10:37:46;2.28;;;1.02;;
47365;SDS011;33105;47.964;7.982;2023-04-24T10:40:51;6.20;;;1.80;;
47365;SDS011;33105;47.964;7.982;2023-04-24T10:44:14;5.85;;;1.00;;
47365;SDS011;33105;47.964;7.982;2023-04-24T10:47:16;3.63;;;1.23;;
47365;SDS011;33105;47.964;7.982;2023-04-24T10:50:18;3.83;;;1.30;;
47365;SDS011;33105;47.964;7.982;2023-04-24T10:53:20;3.22;;;1.10;;
47365;SDS011;33105;47.964;7.982;2023-04-24T10:56:24;9.65;;;1.20;;
47365;SDS011;33105;47.964;7.982;2023-04-24T10:59:25;4.80;;;1.00;;
47365;SDS011;33105;47.964;7.982;2023-04-24T11:02:35;2.70;;;1.08;;
47365;SDS011;33105;47.964;7.982;2023-04-24T11:05:48;2.63;;;1.20;;
47365;SDS011;33105;47.964;7.982;2023-04-24T11:09:07;1.70;;;0.80;;
47365;SDS011;33105;47.964;7.982;2023-04-24T11:12:11;1.88;;;0.90;;
47365;SDS011;33105;47.964;7.982;2023-04-24T11:15:14;4.03;;;0.90;;
47365;SDS011;33105;47.964;7.982;2023-04-24T11:18:20;2.13;;;1.20;;
47365;SDS011;33105;47.964;7.982;2023-04-24T11:21:23;2.60;;;1.10;;
47365;SDS011;33105;47.964;7.982;2023-04-24T11:24:48;4.03;;;1.20;;
47365;SDS011;33105;47.964;7.982;2023-04-24T11:28:04;4.18;;;1.35;;
47365;SDS011;33105;47.964;7.982;2023-04-24T11:34:38;3.60;;;1.10;;
47365;SDS011;33105;47.964;7.982;2023-04-24T11:37:40;2.20;;;1.13;;
47365;SDS011;33105;47.964;7.982;2023-04-24T11:40:43;4.68;;;1.70;;
47365;SDS011;33105;47.964;7.982;2023-04-24T11:43:45;4.30;;;1.40;;
47365;SDS011;33105;47.964;7.982;2023-04-24T11:46:47;4.05;;;1.17;;
47365;SDS011;33105;47.964;7.982;2023-04-24T11:49:50;4.53;;;1.52;;
47365;SDS011;33105;47.964;7.982;2023-04-24T11:52:51;6.22;;;1.50;;
47365;SDS011;33105;47.964;7.982;2023-04-24T11:55:52;5.75;;;1.40;;
47365;SDS011;33105;47.964;7.982;2023-04-24T11:58:53;5.47;;;1.50;;
47365;SDS011;33105;47.964;7.982;2023-04-24T12:01:55;4.03;;;1.10;;
47365;SDS011;33105;47.964;7.982;2023-04-24T12:04:56;7.97;;;1.88;;
47365;SDS011;33105;47.964;7.982;2023-04-24T12:07:58;5.32;;;1.40;;
47365;SDS011;33105;47.964;7.982;2023-04-24T12:11:00;2.15;;;0.93;;
47365;SDS011;33105;47.964;7.982;2023-04-24T12:14:11;4.15;;;1.60;;
47365;SDS011;33105;47.964;7.982;2023-04-24T12:17:13;3.20;;;1.25;;
47365;SDS011;33105;47.964;7.982;2023-04-24T12:20:14;3.67;;;1.17;;
47365;SDS011;33105;47.964;7.982;2023-04-24T12:23:15;4.47;;;1.50;;
47365;SDS011;33105;47.964;7.982;2023-04-24T12:26:18;3.80;;;1.35;;
47365;SDS011;33105;47.964;7.982;2023-04-24T12:29:20;4.45;;;1.50;;
47365;SDS011;33105;47.964;7.982;2023-04-24T12:32:22;5.28;;;1.40;;
47365;SDS011;33105;47.964;7.982;2023-04-24T12:35:24;2.80;;;1.52;;
47365;SDS011;33105;47.964;7.982;2023-04-24T12:38:27;2.28;;;1.42;;
47365;SDS011;33105;47.964;7.982;2023-04-24T12:41:30;2.28;;;1.15;;
47365;SDS011;33105;47.964;7.982;2023-04-24T12:44:32;4.85;;;1.30;;
47365;SDS011;33105;47.964;7.982;2023-04-24T12:47:35;5.57;;;1.40;;
47365;SDS011;33105;47.964;7.982;2023-04-24T12:50:37;5.50;;;1.60;;
47365;SDS011;33105;47.964;7.982;2023-04-24T12:53:39;2.65;;;1.77;;
47365;SDS011;33105;47.964;7.982;2023-04-24T12:56:40;2.70;;;1.50;;
47365;SDS011;33105;47.964;7.982;2023-04-24T12:59:42;3.92;;;1.33;;
47365;SDS011;33105;47.964;7.982;2023-04-24T13:02:43;4.20;;;1.52;;
47365;SDS011;33105;47.964;7.982;2023-04-24T13:05:44;2.10;;;1.20;;
47365;SDS011;33105;47.964;7.982;2023-04-24T13:08:46;2.60;;;1.50;;
47365;SDS011;33105;47.964;7.982;2023-04-24T13:11:48;5.60;;;1.50;;
47365;SDS011;33105;47.964;7.982;2023-04-24T13:14:50;4.22;;;1.45;;
47365;SDS011;33105;47.964;7.982;2023-04-24T13:17:52;3.63;;;1.50;;
47365;SDS011;33105;47.964;7.982;2023-04-24T13:20:53;4.65;;;1.77;;
47365;SDS011;33105;47.964;7.982;2023-04-24T13:23:54;3.70;;;2.10;;
47365;SDS011;33105;47.964;7.982;2023-04-24T13:26:55;4.35;;;1.95;;
47365;SDS011;33105;47.964;7.982;2023-04-24T13:29:57;2.10;;;1.42;;
47365;SDS011;33105;47.964;7.982;2023-04-24T13:32:58;3.00;;;1.38;;
47365;SDS011;33105;47.964;7.982;2023-04-24T13:36:00;10.73;;;1.50;;
47365;SDS011;33105;47.964;7.982;2023-04-24T13:39:01;4.82;;;1.70;;
47365;SDS011;33105;47.964;7.982;2023-04-24T13:42:05;2.97;;;1.70;;
47365;SDS011;33105;47.964;7.982;2023-04-24T13:45:06;6.28;;;1.65;;
47365;SDS011;33105;47.964;7.982;2023-04-24T13:48:07;5.20;;;1.70;;
47365;SDS011;33105;47.964;7.982;2023-04-24T13:51:10;4.65;;;1.98;;
47365;SDS011;33105;47.964;7.982;2023-04-24T13:54:11;4.88;;;1.92;;
47365;SDS011;33105;47.964;7.982;2023-04-24T13:57:13;7.05;;;2.28;;
47365;SDS011;33105;47.964;7.982;2023-04-24T14:00:15;5.53;;;2.30;;
47365;SDS011;33105;47.964;7.982;2023-04-24T14:03:17;4.63;;;1.77;;
47365;SDS011;33105;47.964;7.982;2023-04-24T14:06:19;7.38;;;2.17;;
47365;SDS011;33105;47.964;7.982;2023-04-24T14:09:20;3.22;;;1.55;;
47365;SDS011;33105;47.964;7.982;2023-04-24T14:12:21;2.92;;;1.90;;
47365;SDS011;33105;47.964;7.982;2023-04-24T14:15:23;3.67;;;1.40;;
47365;SDS011;33105;47.964;7.982;2023-04-24T14:18:24;3.70;;;1.75;;
47365;SDS011;33105;47.964;7.982;2023-04-24T14:21:25;3.33;;;1.33;;
47365;SDS011;33105;47.964;7.982;2023-04-24T14:24:26;4.05;;;1.73;;
47365;SDS011;33105;47.964;7.982;2023-04-24T14:27:28;2.78;;;1.55;;
47365;SDS011;33105;47.964;7.982;2023-04-24T14:30:29;3.28;;;1.23;;
47365;SDS011;33105;47.964;7.982;2023-04-24T14:33:30;3.28;;;1.05;;
47365;SDS011;33105;47.964;7.982;2023-04-24T14:36:31;1.83;;;1.20;;
47365;SDS011;33105;47.964;7.982;2023-04-24T14:39:33;3.75;;;1.23;;
47365;SDS011;33105;47.964;7.982;2023-04-24T14:42:34;6.03;;;1.90;;
47365;SDS011;33105;47.964;7.982;2023-04-24T14:45:36;4.90;;;1.35;;
47365;SDS011;33105;47.964;7.982;2023-04-24T14:48:38;2.83;;;1.50;;
47365;SDS011;33105;47.964;7.982;2023-04-24T14:51:39;2.85;;;1.58;;
47365;SDS011;33105;47.964;7.982;2023-04-24T14:54:41;4.35;;;1.40;;
47365;SDS011;33105;47.964;7.982;2023-04-24T14:57:43;4.53;;;1.42;;
47365;SDS011;33105;47.964;7.982;2023-04-24T15:00:44;2.00;;;1.38;;
47365;SDS011;33105;47.964;7.982;2023-04-24T15:03:46;4.00;;;1.83;;
47365;SDS011;33105;47.964;7.982;2023-04-24T15:06:47;4.60;;;1.65;;
47365;SDS011;33105;47.964;7.982;2023-04-24T15:09:48;4.30;;;1.75;;
47365;SDS011;33105;47.964;7.982;2023-04-24T15:12:49;3.92;;;1.67;;
47365;SDS011;33105;47.964;7.982;2023-04-24T15:15:51;2.95;;;1.65;;
47365;SDS011;33105;47.964;7.982;2023-04-24T15:18:52;5.07;;;1.80;;
47365;SDS011;33105;47.964;7.982;2023-04-24T15:21:53;4.65;;;1.67;;
47365;SDS011;33105;47.964;7.982;2023-04-24T15:24:54;5.05;;;1.45;;
47365;SDS011;33105;47.964;7.982;2023-04-24T15:27:57;4.47;;;1.60;;
47365;SDS011;33105;47.964;7.982;2023-04-24T15:31:00;3.63;;;1.42;;
47365;SDS011;33105;47.964;7.982;2023-04-24T15:34:01;2.65;;;1.80;;
47365;SDS011;33105;47.964;7.982;2023-04-24T15:37:02;2.92;;;1.83;;
47365;SDS011;33105;47.964;7.982;2023-04-24T15:40:04;4.20;;;1.92;;
47365;SDS011;33105;47.964;7.982;2023-04-24T15:43:07;4.70;;;2.00;;
47365;SDS011;33105;47.964;7.982;2023-04-24T15:46:09;6.32;;;1.90;;
47365;SDS011;33105;47.964;7.982;2023-04-24T15:49:10;5.20;;;2.17;;
47365;SDS011;33105;47.964;7.982;2023-04-24T15:52:12;5.60;;;1.85;;
47365;SDS011;33105;47.964;7.982;2023-04-24T15:55:14;6.28;;;2.92;;
47365;SDS011;33105;47.964;7.982;2023-04-24T15:58:16;5.70;;;2.15;;
47365;SDS011;33105;47.964;7.982;2023-04-24T16:01:18;4.15;;;1.98;;
47365;SDS011;33105;47.964;7.982;2023-04-24T16:04:19;4.65;;;2.05;;
47365;SDS011;33105;47.964;7.982;2023-04-24T16:07:20;4.32;;;1.95;;
47365;SDS011;33105;47.964;7.982;2023-04-24T16:10:22;5.90;;;2.58;;
47365;SDS011;33105;47.964;7.982;2023-04-24T16:13:23;7.25;;;2.20;;
47365;SDS011;33105;47.964;7.982;2023-04-24T16:16:24;5.38;;;2.20;;
47365;SDS011;33105;47.964;7.982;2023-04-24T16:19:25;4.55;;;2.17;;
47365;SDS011;33105;47.964;7.982;2023-04-24T16:22:26;3.92;;;2.13;;
47365;SDS011;33105;47.964;7.982;2023-04-24T16:25:28;3.88;;;2.10;;
47365;SDS011;33105;47.964;7.982;2023-04-24T16:28:29;4.90;;;2.05;;
47365;SDS011;33105;47.964;7.982;2023-04-24T16:31:31;9.90;;;2.33;;
47365;SDS011;33105;47.964;7.982;2023-04-24T16:34:32;5.15;;;1.95;;
47365;SDS011;33105;47.964;7.982;2023-04-24T16:37:33;5.28;;;1.85;;
47365;SDS011;33105;47.964;7.982;2023-04-24T16:40:35;3.05;;;1.77;;
47365;SDS011;33105;47.964;7.982;2023-04-24T16:43:36;6.38;;;2.03;;
47365;SDS011;33105;47.964;7.982;2023-04-24T16:46:38;2.20;;;1.70;;
47365;SDS011;33105;47.964;7.982;2023-04-24T16:49:39;4.05;;;1.60;;
47365;SDS011;33105;47.964;7.982;2023-04-24T16:52:41;6.32;;;1.60;;
47365;SDS011;33105;47.964;7.982;2023-04-24T16:55:45;4.10;;;1.70;;
47365;SDS011;33105;47.964;7.982;2023-04-24T16:58:46;6.80;;;2.05;;
47365;SDS011;33105;47.964;7.982;2023-04-24T17:01:48;7.25;;;1.60;;
47365;SDS011;33105;47.964;7.982;2023-04-24T17:04:49;6.95;;;2.20;;
47365;SDS011;33105;47.964;7.982;2023-04-24T17:07:50;6.93;;;2.03;;
47365;SDS011;33105;47.964;7.982;2023-04-24T17:10:51;5.38;;;2.30;;
47365;SDS011;33105;47.964;7.982;2023-04-24T17:13:53;6.03;;;1.98;;
47365;SDS011;33105;47.964;7.982;2023-04-24T17:16:54;4.55;;;1.80;;
47365;SDS011;33105;47.964;7.982;2023-04-24T17:19:55;5.18;;;2.05;;
47365;SDS011;33105;47.964;7.982;2023-04-24T17:22:56;4.10;;;2.20;;
47365;SDS011;33105;47.964;7.982;2023-04-24T17:25:58;8.07;;;1.88;;
47365;SDS011;33105;47.964;7.982;2023-04-24T17:28:59;4.32;;;1.98;;
47365;SDS011;33105;47.964;7.982;2023-04-24T17:32:00;5.15;;;2.00;;
47365;SDS011;33105;47.964;7.982;2023-04-24T17:35:01;5.10;;;2.03;;
47365;SDS011;33105;47.964;7.982;2023-04-24T17:38:03;7.43;;;2.20;;
47365;SDS011;33105;47.964;7.982;2023-04-24T17:41:04;4.97;;;2.28;;
47365;SDS011;33105;47.964;7.982;2023-04-24T17:44:06;7.72;;;1.67;;
47365;SDS011;33105;47.964;7.982;2023-04-24T17:47:08;5.03;;;2.08;;
47365;SDS011;33105;47.964;7.982;2023-04-24T17:50:09;5.40;;;2.20;;
47365;SDS011;33105;47.964;7.982;2023-04-24T17:53:11;4.25;;;1.88;;
47365;SDS011;33105;47.964;7.982;2023-04-24T17:56:12;7.40;;;2.75;;
47365;SDS011;33105;47.964;7.982;2023-04-24T17:59:13;7.35;;;2.55;;
47365;SDS011;33105;47.964;7.982;2023-04-24T18:02:16;7.43;;;2.15;;
47365;SDS011;33105;47.964;7.982;2023-04-24T18:05:17;5.72;;;2.38;;
47365;SDS011;33105;47.964;7.982;2023-04-24T18:08:18;5.40;;;2.25;;
47365;SDS011;33105;47.964;7.982;2023-04-24T18:11:20;4.00;;;2.20;;
47365;SDS011;33105;47.964;7.982;2023-04-24T18:14:21;4.35;;;2.13;;
47365;SDS011;33105;47.964;7.982;2023-04-24T18:17:23;4.25;;;2.00;;
47365;SDS011;33105;47.964;7.982;2023-04-24T18:20:25;3.15;;;1.92;;
47365;SDS011;33105;47.964;7.982;2023-04-24T18:23:27;4.65;;;2.28;;